Terminal Aerodrome Forecast
Issued by NWS Cleveland, OH

Home | Current Version | Previous Version | Text Only | Print | Product List | Glossary Off
Versions: 1 2 3 4 5 6 7 8 9 10 11 12 13 14

000
FTUS41 KCLE 171100
TAFTOL
TAF
KTOL 171127Z 1712/1812 20010KT P6SM OVC019
      TEMPO 1712/1715 SCT019
     FM171500 24015G25KT P6SM SCT020 SCT050
      TEMPO 1715/1718 BKN020
     FM180000 27012KT P6SM VCSH OVC035
     FM180400 28012KT P6SM VCSH OVC020=

USA.gov is the U.S. government's official web portal to all federal, state and local government web resources and services.